PWSweather.com
Personal Weather Stations
Station Observations
WISCHPK61
Green Bay Schmitt Park, Green Bay, WI 54311

Green Bay Schmitt ParkGreen Bay, WI 54311

Lat: 44.514277, Lon: -87.935067

Elevation: 735

Station Type: Acu Rite Pro Weather Center model 02032C

http://greenbayweathercam.com

High Low Average
Temperature 30.6°F-0.8°C 20.1°F-6.6°C 24.9°F-3.9°C
Dew Point 30.4°F-0.9°C 14.4°F-9.8°C 23.0°F-5.0°C
Winds Calm Calm Calm Calm Calm SCalm S
Wind Gusts -- -- --
Humidity 99% 71% 93%
Pressure 29.65 in1004.1 mb 29.57 in1001.4 mb -
Precipitation 0.00 in0.0 mm - -
Hour Temp Dew Point Humidity Winds Wind Gusts Pressure Precip Precip Rate Daily Precip Total
12:00 AM 19.8°F-6.8°C 19.6°F-6.9°C 99% Calm Calm -- 29.66 in1004.4 mb - 0.00 in0.0 mm 0.00 in0.0 mm
01:00 AM 20.1°F-6.6°C 14.6°F-9.7°C 79% Calm Calm -- 29.65 in1004.1 mb - 0.00 in0.0 mm 0.00 in0.0 mm
02:00 AM 20.3°F-6.5°C 20.1°F-6.6°C 99% Calm Calm -- 29.64 in1003.7 mb - 0.00 in0.0 mm 0.00 in0.0 mm
03:00 AM 20.5°F-6.4°C 20.3°F-6.5°C 99% Calm Calm -- 29.65 in1004.1 mb - 0.00 in0.0 mm 0.00 in0.0 mm
04:00 AM 21.2°F-6.0°C 21.0°F-6.1°C 99% Calm Calm -- 29.65 in1004.1 mb - 0.00 in0.0 mm 0.00 in0.0 mm
05:00 AM 21.2°F-6.0°C 21.0°F-6.1°C 99% Calm Calm -- 29.64 in1003.7 mb - 0.00 in0.0 mm 0.00 in0.0 mm
06:00 AM 21.4°F-5.9°C 21.2°F-6.0°C 99% Calm Calm -- 29.65 in1004.1 mb - 0.00 in0.0 mm 0.00 in0.0 mm
07:00 AM 21.4°F-5.9°C 14.4°F-9.8°C 74% Calm Calm -- 29.64 in1003.7 mb - 0.00 in0.0 mm 0.00 in0.0 mm
08:00 AM 21.6°F-5.8°C 21.4°F-5.9°C 99% Calm Calm -- 29.62 in1003.0 mb - 0.00 in0.0 mm 0.00 in0.0 mm
09:00 AM 21.6°F-5.8°C 15.5°F-9.2°C 77% Calm Calm -- 29.62 in1003.0 mb - 0.00 in0.0 mm 0.00 in0.0 mm
11:00 AM 26.2°F-3.2°C 22.0°F-5.6°C 84% Calm Calm -- 29.64 in1003.7 mb - 0.00 in0.0 mm 0.00 in0.0 mm
12:00 PM 27.3°F-2.6°C 27.1°F-2.7°C 99% Calm Calm -- 29.62 in1003.0 mb - 0.00 in0.0 mm 0.00 in0.0 mm
01:00 PM 28.9°F-1.7°C 28.7°F-1.8°C 99% Calm Calm -- 29.60 in1002.4 mb - 0.00 in0.0 mm 0.00 in0.0 mm
02:00 PM 30.0°F-1.1°C 21.7°F-5.7°C 71% Calm Calm -- 29.59 in1002.0 mb - 0.00 in0.0 mm 0.00 in0.0 mm
03:00 PM 29.8°F-1.2°C 29.6°F-1.3°C 99% Calm Calm -- 29.57 in1001.4 mb - 0.00 in0.0 mm 0.00 in0.0 mm
04:00 PM 30.6°F-0.8°C 30.4°F-0.9°C 99% Calm Calm -- 29.58 in1001.7 mb - 0.00 in0.0 mm 0.00 in0.0 mm
05:00 PM 28.1°F-2.2°C 27.9°F-2.3°C 99% Calm Calm -- 29.57 in1001.4 mb - 0.00 in0.0 mm 0.00 in0.0 mm
06:00 PM 26.8°F-2.9°C 26.6°F-3.0°C 99% Calm Calm -- 29.58 in1001.7 mb - 0.00 in0.0 mm 0.00 in0.0 mm
07:00 PM 26.6°F-3.0°C 26.4°F-3.1°C 99% Calm Calm -- 29.59 in1002.0 mb - 0.00 in0.0 mm 0.00 in0.0 mm
08:00 PM 26.4°F-3.1°C 22.5°F-5.3°C 85% Calm Calm -- 29.59 in1002.0 mb - 0.00 in0.0 mm 0.00 in0.0 mm
09:00 PM 26.2°F-3.2°C 26.0°F-3.3°C 99% Calm Calm -- 29.59 in1002.0 mb - 0.00 in0.0 mm 0.00 in0.0 mm
10:00 PM 26.1°F-3.3°C 20.2°F-6.6°C 78% Calm Calm -- 29.60 in1002.4 mb - 0.00 in0.0 mm 0.00 in0.0 mm
11:00 PM 25.3°F-3.7°C 25.1°F-3.8°C 99% Calm Calm -- 29.60 in1002.4 mb - 0.00 in0.0 mm 0.00 in0.0 mm